Time;durP1;ratioP1;P1;durP2;ratioP2;P2;SDS_P1;SDS_P2;PMS_P1;PMS_P2;Temp;Humidity;BMP_temperature;BMP_pressure;BME280_temperature;BME280_humidity;BME280_pressure;Samples;Min_cycle;Max_cycle;Signal;HPM_P1;HPM_P2
2022/06/04 00:01:47;;;;;;;9.70;7.67;;;;;;;16.18;100.00;98601.97;5093573;28;20206;-54
2022/06/04 00:04:16;;;;;;;9.47;7.73;;;;;;;16.13;100.00;98600.88;5093009;28;20243;-54
2022/06/04 00:06:45;;;;;;;11.60;7.77;;;;;;;16.08;100.00;98599.63;5093014;28;20198;-55
2022/06/04 00:09:13;;;;;;;9.37;7.70;;;;;;;16.07;100.00;98600.63;5092729;28;20208;-54
2022/06/04 00:17:14;;;;;;;9.50;7.43;;;;;;;15.98;100.00;98593.06;5091325;28;20201;-53
2022/06/04 00:19:41;;;;;;;8.77;7.37;;;;;;;15.93;100.00;98589.16;5091231;28;20554;-52
2022/06/04 00:22:09;;;;;;;9.00;7.20;;;;;;;15.88;100.00;98588.91;5091234;28;20198;-52
2022/06/04 00:24:37;;;;;;;7.97;7.17;;;;;;;15.89;100.00;98589.72;5092781;28;20239;-52
2022/06/04 00:27:06;;;;;;;9.67;7.50;;;;;;;15.86;100.00;98587.44;5092098;28;20218;-52
2022/06/04 00:29:33;;;;;;;9.70;8.13;;;;;;;15.83;100.00;98578.09;5092206;28;20244;-52
2022/06/04 00:32:00;;;;;;;9.53;7.60;;;;;;;15.86;100.00;98569.81;5092628;28;20182;-52
2022/06/04 00:34:28;;;;;;;8.47;7.10;;;;;;;15.85;100.00;98562.13;5092577;28;20257;-51
2022/06/04 00:36:56;;;;;;;7.77;6.97;;;;;;;15.78;100.00;98560.22;5092531;28;20805;-53
2022/06/04 00:39:24;;;;;;;9.43;6.97;;;;;;;15.77;100.00;98555.16;5092227;28;20209;-52
2022/06/04 00:41:58;;;;;;;8.27;7.47;;;;;;;15.78;100.00;98551.50;5091080;28;20695;-52
2022/06/04 00:45:04;;;;;;;8.50;7.60;;;;;;;15.79;100.00;98555.78;5092346;28;20212;-51
2022/06/04 00:47:33;;;;;;;10.17;7.67;;;;;;;15.76;100.00;98556.97;5092102;28;20725;-52
2022/06/04 00:49:59;;;;;;;8.27;6.87;;;;;;;15.73;100.00;98557.34;5092585;28;20193;-52
2022/06/04 00:52:27;;;;;;;14.60;7.60;;;;;;;15.72;100.00;98568.88;5092251;28;20209;-52
2022/06/04 00:55:13;;;;;;;8.93;7.20;;;;;;;15.84;100.00;98578.91;5093141;28;20636;-52
2022/06/04 00:58:14;;;;;;;9.60;7.50;;;;;;;15.88;100.00;98588.09;5091687;28;20209;-53
2022/06/04 01:00:48;;;;;;;8.17;6.23;;;;;;;15.84;100.00;98606.03;5081323;28;20684;-52
2022/06/04 01:03:35;;;;;;;7.97;6.80;;;;;;;15.84;100.00;98615.75;5096287;28;20601;-53
2022/06/04 01:06:19;;;;;;;11.17;7.40;;;;;;;15.88;100.00;98611.78;5096414;28;20197;-51
2022/06/04 01:09:02;;;;;;;8.23;6.90;;;;;;;15.86;100.00;98617.19;5095666;28;20306;-54
2022/06/04 01:14:36;;;;;;;8.53;6.97;;;;;;;15.85;100.00;98614.75;5095587;28;20203;-54
2022/06/04 01:17:11;;;;;;;9.43;7.47;;;;;;;15.83;100.00;98624.66;5095751;28;20178;-52
2022/06/04 01:19:56;;;;;;;8.13;7.33;;;;;;;15.81;100.00;98635.34;5095799;28;20189;-54
2022/06/04 01:22:49;;;;;;;8.37;6.70;;;;;;;15.80;100.00;98628.47;5095989;28;20197;-51
2022/06/04 01:25:34;;;;;;;11.17;6.97;;;;;;;15.77;100.00;98626.19;5096424;28;20266;-52
2022/06/04 01:28:06;;;;;;;8.93;7.00;;;;;;;15.73;100.00;98625.75;5095461;28;20213;-53
2022/06/04 01:30:38;;;;;;;8.07;7.20;;;;;;;15.68;100.00;98629.94;5095814;28;20194;-53
2022/06/04 01:33:29;;;;;;;10.90;6.90;;;;;;;15.63;100.00;98627.88;5096412;28;20235;-52
2022/06/04 01:36:02;;;;;;;7.80;7.10;;;;;;;15.60;100.00;98626.41;5095605;28;20179;-54
2022/06/04 01:38:35;;;;;;;9.03;7.50;;;;;;;15.61;100.00;98629.84;5095482;28;20332;-54
2022/06/04 01:41:07;;;;;;;7.77;6.97;;;;;;;15.60;100.00;98629.03;5094577;28;20558;-54
2022/06/04 01:43:40;;;;;;;8.33;7.53;;;;;;;15.60;100.00;98626.41;5096145;28;20596;-51
2022/06/04 01:46:14;;;;;;;10.57;7.73;;;;;;;15.56;100.00;98624.34;5095643;28;20190;-51
2022/06/04 01:48:45;;;;;;;8.43;7.43;;;;;;;15.47;100.00;98613.91;5095140;28;20245;-52
2022/06/04 01:51:19;;;;;;;9.63;7.90;;;;;;;15.44;100.00;98616.06;5095539;28;20195;-53
2022/06/04 01:53:49;;;;;;;10.43;8.23;;;;;;;15.40;100.00;98618.25;5095443;28;20273;-52
2022/06/04 01:56:21;;;;;;;9.90;8.00;;;;;;;15.40;100.00;98623.53;5095570;28;20202;-52
2022/06/04 01:58:54;;;;;;;9.30;8.20;;;;;;;15.45;100.00;98620.34;5095133;28;20197;-52
2022/06/04 02:01:28;;;;;;;9.03;7.90;;;;;;;15.45;100.00;98615.91;5095383;28;20183;-54
2022/06/04 02:04:01;;;;;;;8.87;7.97;;;;;;;15.45;100.00;98613.28;5095295;28;20190;-53
2022/06/04 02:06:36;;;;;;;10.80;8.20;;;;;;;15.43;100.00;98615.28;5095155;28;20245;-52
2022/06/04 02:09:08;;;;;;;9.77;8.33;;;;;;;15.45;100.00;98613.28;5093400;28;20222;-51
2022/06/04 02:11:38;;;;;;;9.40;8.30;;;;;;;15.45;100.00;98615.91;5094391;28;20190;-53
2022/06/04 02:14:08;;;;;;;12.83;8.13;;;;;;;15.46;100.00;98608.81;5095233;28;20193;-53
2022/06/04 02:16:42;;;;;;;8.80;7.80;;;;;;;15.45;100.00;98602.75;5095486;28;20274;-51
2022/06/04 02:19:10;;;;;;;10.83;8.47;;;;;;;15.48;100.00;98607.66;5095009;28;20276;-53
2022/06/04 02:21:38;;;;;;;9.37;8.43;;;;;;;15.50;100.00;98603.03;5093859;28;20251;-52
2022/06/04 02:24:07;;;;;;;12.23;8.73;;;;;;;15.53;100.00;98596.56;5094850;28;20266;-52
2022/06/04 02:26:36;;;;;;;9.07;8.17;;;;;;;15.53;100.00;98593.94;5094946;28;20654;-52
2022/06/04 02:29:05;;;;;;;11.53;8.40;;;;;;;15.54;100.00;98597.38;5094020;28;20214;-52
2022/06/04 02:31:42;;;;;;;9.57;8.17;;;;;;;15.57;100.00;98589.94;5094513;28;20185;-52
2022/06/04 02:34:18;;;;;;;9.03;7.90;;;;;;;15.56;100.00;98596.19;5094741;28;20178;-51
2022/06/04 02:36:55;;;;;;;8.87;8.00;;;;;;;15.56;100.00;98592.75;5094508;28;20190;-51
2022/06/04 02:39:27;;;;;;;9.80;8.47;;;;;;;15.57;100.00;98586.50;5092883;28;20244;-52
2022/06/04 02:42:03;;;;;;;9.30;8.30;;;;;;;15.60;100.00;98583.50;5094432;28;20213;-53
2022/06/04 02:44:34;;;;;;;10.23;8.90;;;;;;;15.63;100.00;98588.41;5094294;28;20197;-52
2022/06/04 02:47:10;;;;;;;12.90;8.43;;;;;;;15.64;100.00;98584.75;5093846;28;20520;-52
2022/06/04 02:49:43;;;;;;;10.37;8.10;;;;;;;15.62;100.00;98582.31;5093776;28;20190;-53
2022/06/04 02:52:15;;;;;;;10.47;8.33;;;;;;;15.69;100.00;98582.41;5094055;28;20186;-52
2022/06/04 02:54:49;;;;;;;8.83;7.93;;;;;;;15.71;100.00;98585.66;5094222;28;20629;-53
2022/06/04 02:57:17;;;;;;;10.13;7.50;;;;;;;15.74;100.00;98581.81;5092788;28;20276;-53
2022/06/04 02:59:46;;;;;;;8.03;7.23;;;;;;;15.79;100.00;98587.34;5093839;28;20187;-52
2022/06/04 03:02:17;;;;;;;9.33;8.03;;;;;;;15.79;100.00;98585.56;5093580;28;20217;-52
2022/06/04 03:04:49;;;;;;;9.40;7.90;;;;;;;15.81;100.00;98584.56;5093712;28;20646;-53
2022/06/04 03:07:18;;;;;;;9.93;7.63;;;;;;;15.81;100.00;98581.91;5093657;28;20244;-52
2022/06/04 03:10:08;;;;;;;9.97;7.17;;;;;;;15.82;100.00;98594.06;5094216;28;20210;-52
2022/06/04 03:12:36;;;;;;;10.53;7.00;;;;;;;15.82;100.00;98594.06;5093691;28;20261;-52
2022/06/04 03:15:03;;;;;;;8.23;7.27;;;;;;;15.80;100.00;98596.88;5093541;28;20182;-52
2022/06/04 03:17:32;;;;;;;9.07;7.70;;;;;;;15.79;100.00;98596.06;5093176;28;20611;-54
2022/06/04 03:19:59;;;;;;;9.27;7.43;;;;;;;15.78;100.00;98602.34;5092168;28;20682;-52
2022/06/04 03:22:26;;;;;;;8.13;7.33;;;;;;;15.77;100.00;98602.50;5093772;28;20217;-53
2022/06/04 03:24:53;;;;;;;8.47;7.67;;;;;;;15.74;100.00;98595.81;5093379;28;20654;-51
2022/06/04 03:27:20;;;;;;;11.33;8.43;;;;;;;15.81;100.00;98579.28;5092869;28;20282;-52
2022/06/04 03:29:48;;;;;;;8.37;7.47;;;;;;;15.76;100.00;98577.19;5093639;28;20195;-52
2022/06/04 03:32:15;;;;;;;10.33;7.90;;;;;;;15.79;100.00;98567.13;5093506;28;20214;-54
2022/06/04 03:34:44;;;;;;;11.33;8.07;;;;;;;15.73;100.00;98548.63;5093024;28;20315;-52
2022/06/04 03:37:11;;;;;;;8.50;7.17;;;;;;;15.69;100.00;98550.00;5092783;28;20680;-52
2022/06/04 03:39:38;;;;;;;9.60;7.73;;;;;;;15.68;100.00;98549.19;5092689;28;20569;-52
2022/06/04 03:42:06;;;;;;;10.93;7.77;;;;;;;15.70;100.00;98544.56;5093210;28;20639;-52
2022/06/04 03:44:33;;;;;;;7.90;7.20;;;;;;;15.72;100.00;98544.34;5093224;28;20193;-52
2022/06/04 03:47:01;;;;;;;9.37;7.83;;;;;;;15.75;100.00;98552.72;5093096;28;20372;-53
2022/06/04 03:49:28;;;;;;;8.00;7.20;;;;;;;15.78;100.00;98554.97;5093331;28;20210;-52
2022/06/04 03:51:56;;;;;;;8.13;6.80;;;;;;;15.85;100.00;98564.75;5092930;28;20273;-53
2022/06/04 03:59:50;;;;;;;8.10;6.83;;;;;;;16.01;100.00;98614.53;5092699;28;20666;-52
2022/06/04 04:02:18;;;;;;;7.07;6.37;;;;;;;16.11;100.00;98619.53;5092713;28;20216;-52
2022/06/04 04:04:45;;;;;;;8.07;7.13;;;;;;;16.19;100.00;98623.84;5092718;28;20197;-52
2022/06/04 04:07:14;;;;;;;9.07;7.50;;;;;;;16.31;100.00;98629.44;5092670;28;20711;-52
2022/06/04 04:09:42;;;;;;;7.87;6.73;;;;;;;16.41;100.00;98642.28;5091261;28;20245;-54
2022/06/04 04:12:09;;;;;;;9.40;7.13;;;;;;;16.51;100.00;98655.97;5092485;28;20183;-53
2022/06/04 04:14:37;;;;;;;7.97;7.23;;;;;;;16.65;100.00;98677.97;5092456;28;20191;-54
2022/06/04 04:17:04;;;;;;;11.10;7.57;;;;;;;16.77;100.00;98678.28;5092605;28;20187;-53
2022/06/04 04:19:32;;;;;;;12.87;10.80;;;;;;;16.86;100.00;98677.16;5092297;28;20673;-52
2022/06/04 04:21:59;;;;;;;10.60;9.50;;;;;;;16.93;100.00;98683.31;5092496;28;20183;-52
2022/06/04 04:24:28;;;;;;;12.00;10.73;;;;;;;17.03;99.89;98708.53;5092529;28;20195;-53
2022/06/04 04:26:56;;;;;;;15.00;13.40;;;;;;;16.98;100.00;98717.03;5092647;28;20187;-52
2022/06/04 04:29:23;;;;;;;14.47;12.20;;;;;;;17.06;100.00;98739.78;5092008;28;20204;-52
2022/06/04 04:31:50;;;;;;;15.70;14.00;;;;;;;16.89;100.00;98728.69;5092440;28;20520;-52
2022/06/04 04:34:18;;;;;;;16.87;14.27;;;;;;;16.92;100.00;98736.22;5092050;28;20191;-51
2022/06/04 04:36:46;;;;;;;17.73;14.43;;;;;;;16.88;100.00;98741.06;5092153;28;20238;-52
2022/06/04 04:39:13;;;;;;;17.83;15.13;;;;;;;16.90;100.00;98744.31;5092160;28;20214;-53
2022/06/04 04:41:42;;;;;;;17.30;14.03;;;;;;;16.85;100.00;98744.06;5092208;28;20181;-52
2022/06/04 04:44:09;;;;;;;18.47;14.67;;;;;;;16.85;100.00;98736.16;5092230;28;20375;-51
2022/06/04 04:46:36;;;;;;;14.63;13.20;;;;;;;16.88;100.00;98730.50;5092283;28;20184;-52
2022/06/04 04:49:04;;;;;;;16.03;14.00;;;;;;;16.93;100.00;98737.84;5091866;28;20211;-52
2022/06/04 04:51:34;;;;;;;13.83;12.30;;;;;;;16.96;100.00;98742.75;5092480;28;20187;-51
2022/06/04 04:54:02;;;;;;;14.53;12.53;;;;;;;16.97;100.00;98750.47;5091032;28;20201;-54
2022/06/04 04:56:29;;;;;;;15.53;12.27;;;;;;;17.03;100.00;98754.19;5092325;28;20218;-52
2022/06/04 04:58:58;;;;;;;14.87;12.80;;;;;;;17.07;100.00;98741.44;5092277;28;20247;-52
2022/06/04 05:01:27;;;;;;;14.17;12.67;;;;;;;17.17;100.00;98744.56;5092156;28;20280;-52
2022/06/04 05:03:55;;;;;;;17.37;11.83;;;;;;;17.24;100.00;98755.19;5091012;28;20202;-52
2022/06/04 05:06:23;;;;;;;13.73;12.37;;;;;;;17.33;100.00;98750.56;5092313;28;20183;-52
2022/06/04 05:08:52;;;;;;;13.73;12.30;;;;;;;17.41;100.00;98767.09;5091671;28;20230;-52
2022/06/04 05:11:22;;;;;;;12.60;11.30;;;;;;;17.52;100.00;98784.19;5091057;28;20804;-51
2022/06/04 05:13:50;;;;;;;13.77;12.27;;;;;;;17.50;100.00;98786.22;5092170;28;20193;-52
2022/06/04 05:16:19;;;;;;;15.90;14.23;;;;;;;17.48;98.73;98790.06;5092383;28;20682;-52
2022/06/04 05:18:46;;;;;;;14.30;12.83;;;;;;;17.56;98.22;98787.25;5092487;28;20249;-52
2022/06/04 05:21:20;;;;;;;13.90;12.43;;;;;;;17.59;97.25;98786.88;5092257;28;20269;-52
2022/06/04 05:23:48;;;;;;;13.67;12.27;;;;;;;17.62;97.22;98788.31;5092326;28;20202;-52
2022/06/04 05:26:15;;;;;;;13.30;11.20;;;;;;;17.62;96.75;98775.13;5092118;28;20187;-51
2022/06/04 05:28:42;;;;;;;10.30;9.13;;;;;;;17.69;95.73;98768.88;5091757;28;20260;-51
2022/06/04 05:31:12;;;;;;;16.47;10.37;;;;;;;17.75;95.52;98769.09;5092144;28;20185;-52
2022/06/04 05:33:59;;;;;;;15.43;9.60;;;;;;;17.84;94.28;98766.13;5092546;28;20252;-54
2022/06/04 05:36:25;;;;;;;10.83;8.43;;;;;;;17.91;96.35;98757.44;5091992;28;20189;-52
2022/06/04 05:38:53;;;;;;;8.40;6.80;;;;;;;17.99;96.47;98759.91;5091783;28;20194;-52
2022/06/04 05:41:20;;;;;;;7.43;6.60;;;;;;;18.00;97.64;98759.75;5090822;28;20218;-52
2022/06/04 05:43:48;;;;;;;11.13;5.90;;;;;;;18.06;97.13;98744.13;5090644;28;20191;-54
2022/06/04 05:46:19;;;;;;;6.20;5.60;;;;;;;18.08;96.61;98732.31;5092719;28;20190;-51
2022/06/04 05:48:47;;;;;;;7.23;5.70;;;;;;;18.08;96.79;98729.69;5095089;28;20327;-54
2022/06/04 05:51:19;;;;;;;10.37;5.83;;;;;;;18.14;97.13;98725.47;5095429;28;20192;-52
2022/06/04 05:53:48;;;;;;;8.83;7.93;;;;;;;18.10;97.78;98724.22;5094398;28;20677;-52
2022/06/04 05:56:19;;;;;;;7.67;5.93;;;;;;;18.11;98.58;98726.66;5095175;28;20190;-51
2022/06/04 05:58:47;;;;;;;9.80;5.63;;;;;;;18.11;98.80;98721.38;5095285;28;20208;-53
2022/06/04 06:01:14;;;;;;;7.77;4.83;;;;;;;18.10;99.08;98719.75;5094948;28;20266;-51
2022/06/04 06:03:43;;;;;;;10.07;5.80;;;;;;;18.08;100.00;98729.69;5093755;28;20731;-52
2022/06/04 06:06:14;;;;;;;6.53;5.83;;;;;;;18.07;100.00;98732.53;5095109;28;20218;-52
2022/06/04 06:08:43;;;;;;;6.07;5.47;;;;;;;18.08;100.00;98728.88;5093331;28;20302;-53
2022/06/04 06:11:13;;;;;;;6.20;5.60;;;;;;;18.14;100.00;98720.19;5095034;28;20240;-51
2022/06/04 06:13:42;;;;;;;7.43;5.53;;;;;;;18.14;100.00;98712.25;5094987;28;20261;-54
2022/06/04 06:16:14;;;;;;;9.70;5.70;;;;;;;18.23;100.00;98697.84;5095200;28;20654;-52
2022/06/04 06:18:42;;;;;;;6.70;5.43;;;;;;;18.15;100.00;98677.69;5094631;28;20707;-51
2022/06/04 06:21:12;;;;;;;7.20;5.60;;;;;;;18.38;100.00;98702.16;5094812;28;20199;-54
2022/06/04 06:23:41;;;;;;;8.97;6.10;;;;;;;18.56;100.00;98726.16;5094677;28;20725;-53
2022/06/04 06:26:15;;;;;;;7.80;6.63;;;;;;;18.85;100.00;98729.47;5094666;28;20219;-51
2022/06/04 06:28:44;;;;;;;7.50;5.93;;;;;;;19.15;100.00;98738.88;5094295;28;20215;-52
2022/06/04 06:31:13;;;;;;;7.30;5.33;;;;;;;19.54;100.00;98754.94;5094458;28;20661;-53
2022/06/04 06:33:40;;;;;;;5.77;5.17;;;;;;;19.81;97.63;98762.81;5094472;28;20190;-53
2022/06/04 06:36:11;;;;;;;8.07;5.10;;;;;;;19.90;94.55;98765.06;5094566;28;20260;-53
2022/06/04 06:38:39;;;;;;;6.83;4.50;;;;;;;20.02;94.02;98773.19;5094234;28;20211;-52
2022/06/04 06:41:09;;;;;;;6.70;4.50;;;;;;;20.14;93.67;98775.97;5095109;28;20189;-51
2022/06/04 06:43:37;;;;;;;6.13;4.87;;;;;;;20.15;93.44;98774.94;5095141;28;20189;-52
2022/06/04 06:46:06;;;;;;;5.00;4.50;;;;;;;20.21;92.69;98776.75;5095507;28;20195;-53
2022/06/04 06:48:34;;;;;;;8.90;4.80;;;;;;;20.02;91.83;98751.97;5095721;28;20219;-52
2022/06/04 06:51:06;;;;;;;5.63;4.93;;;;;;;20.05;91.40;98740.16;5095584;28;20201;-54
2022/06/04 06:53:34;;;;;;;6.33;4.80;;;;;;;19.92;93.26;98746.31;5095083;28;20194;-52
2022/06/04 06:56:23;;;;;;;7.47;5.53;;;;;;;19.95;95.38;98761.78;5095303;28;20197;-54
2022/06/04 06:58:51;;;;;;;6.30;5.37;;;;;;;20.11;94.15;98760.53;5094167;28;20207;-52
2022/06/04 07:01:21;;;;;;;7.27;5.60;;;;;;;20.23;93.80;98758.00;5094768;28;20189;-54
2022/06/04 07:03:49;;;;;;;6.57;5.53;;;;;;;20.30;91.76;98756.16;5094876;28;20276;-52
2022/06/04 07:06:27;;;;;;;6.37;5.30;;;;;;;20.48;91.50;98758.09;5094688;28;20198;-53
2022/06/04 07:08:54;;;;;;;7.47;6.77;;;;;;;20.65;89.65;98763.72;5094271;28;20569;-53
2022/06/04 07:11:41;;;;;;;9.70;8.63;;;;;;;20.68;87.08;98761.66;5095286;28;20223;-52
2022/06/04 07:14:28;;;;;;;9.37;8.47;;;;;;;20.71;87.03;98766.53;5094843;28;20670;-53
2022/06/04 07:16:56;;;;;;;10.60;9.13;;;;;;;20.65;86.17;98774.34;5094776;28;20611;-52
2022/06/04 07:19:24;;;;;;;10.10;9.10;;;;;;;20.62;85.57;98773.94;5094317;28;20200;-52
2022/06/04 07:21:54;;;;;;;10.57;9.17;;;;;;;20.55;85.19;98773.16;5094288;28;20224;-53
2022/06/04 07:24:21;;;;;;;11.20;10.07;;;;;;;20.44;87.10;98764.84;5093161;28;20497;-53
2022/06/04 07:26:51;;;;;;;12.57;10.40;;;;;;;20.55;87.78;98765.19;5094295;28;20242;-54
2022/06/04 07:29:18;;;;;;;15.97;9.97;;;;;;;20.62;87.78;98761.50;5093510;28;20220;-54
2022/06/04 07:31:46;;;;;;;12.57;9.47;;;;;;;20.93;86.27;98762.53;5092868;28;20192;-52
2022/06/04 07:34:14;;;;;;;13.20;9.47;;;;;;;21.32;85.75;98759.78;5094209;28;20185;-54
2022/06/04 07:36:44;;;;;;;12.27;9.37;;;;;;;21.57;83.93;98755.47;5093938;28;20193;-53
2022/06/04 07:39:14;;;;;;;10.97;9.27;;;;;;;21.86;82.70;98753.16;5093739;28;20209;-54
2022/06/04 07:42:01;;;;;;;9.47;8.33;;;;;;;22.08;81.39;98756.19;5094268;28;20658;-53
2022/06/04 07:44:28;;;;;;;9.93;8.57;;;;;;;22.04;81.45;98757.66;5093779;28;20549;-54
2022/06/04 07:46:58;;;;;;;13.60;10.23;;;;;;;21.94;80.86;98761.66;5092053;28;20180;-52
2022/06/04 07:49:26;;;;;;;10.30;8.77;;;;;;;21.81;80.78;98761.78;5092937;28;20295;-53
2022/06/04 07:51:54;;;;;;;12.63;9.43;;;;;;;21.62;81.57;98758.28;5093463;28;20183;-54
2022/06/04 07:54:21;;;;;;;9.33;8.43;;;;;;;21.36;82.03;98754.84;5093159;28;20723;-54
2022/06/04 07:56:49;;;;;;;10.47;9.47;;;;;;;21.08;82.31;98756.94;5093076;28;20596;-53
2022/06/04 07:59:17;;;;;;;12.47;10.40;;;;;;;20.99;84.07;98760.88;5092752;28;20265;-53
2022/06/04 08:01:45;;;;;;;10.03;8.57;;;;;;;21.07;85.03;98768.56;5093217;28;20180;-52
2022/06/04 08:04:12;;;;;;;14.03;12.10;;;;;;;20.83;87.28;98772.00;5093473;28;20655;-52
2022/06/04 08:06:39;;;;;;;15.03;13.53;;;;;;;20.95;86.19;98780.91;5093664;28;20187;-52
2022/06/04 08:09:08;;;;;;;15.80;13.80;;;;;;;20.73;86.65;98778.56;5092540;28;20203;-54
2022/06/04 08:11:36;;;;;;;15.00;13.37;;;;;;;20.70;88.12;98776.34;5092979;28;20227;-51
2022/06/04 08:14:09;;;;;;;15.90;13.73;;;;;;;20.62;89.11;98779.22;5093090;28;20198;-52
2022/06/04 08:16:40;;;;;;;19.67;16.20;;;;;;;20.49;89.17;98782.78;5093115;28;20535;-51
2022/06/04 08:19:08;;;;;;;16.97;15.27;;;;;;;20.48;90.17;98789.91;5092808;28;20199;-52
2022/06/04 08:21:37;;;;;;;18.13;15.70;;;;;;;20.42;87.60;98788.09;5093122;28;20202;-53
2022/06/04 08:24:04;;;;;;;21.90;18.03;;;;;;;20.23;89.97;98796.94;5093054;28;20189;-52
2022/06/04 08:26:32;;;;;;;20.10;18.03;;;;;;;20.05;92.71;98799.25;5093005;28;20187;-52
2022/06/04 08:29:18;;;;;;;20.43;18.33;;;;;;;19.83;93.90;98800.50;5093127;28;20713;-52
2022/06/04 08:31:47;;;;;;;20.90;18.20;;;;;;;19.80;95.22;98798.25;5093262;28;20193;-53
2022/06/04 08:34:14;;;;;;;20.87;18.10;;;;;;;19.69;95.31;98805.00;5092809;28;20683;-53
2022/06/04 08:36:42;;;;;;;22.47;17.07;;;;;;;19.76;96.54;98817.22;5093301;28;20686;-55
2022/06/04 08:39:10;;;;;;;21.23;17.90;;;;;;;19.75;95.68;98834.13;5093010;28;20231;-54
2022/06/04 08:41:47;;;;;;;18.73;16.90;;;;;;;19.77;95.31;98834.72;5092974;28;20198;-53
2022/06/04 08:44:19;;;;;;;22.43;19.17;;;;;;;19.65;96.64;98838.22;5092668;28;20275;-53
2022/06/04 08:46:52;;;;;;;20.70;18.60;;;;;;;19.65;95.48;98838.22;5092928;28;20263;-52
2022/06/04 08:49:29;;;;;;;22.20;19.77;;;;;;;19.57;95.91;98836.59;5092948;28;20607;-53
2022/06/04 08:51:58;;;;;;;23.57;18.90;;;;;;;19.53;96.11;98846.78;5092736;28;20192;-53
2022/06/04 09:00:05;;;;;;;27.07;22.37;;;;;;;19.37;97.68;98855.13;5092317;28;20552;-54
2022/06/04 09:02:45;;;;;;;21.80;18.97;;;;;;;19.56;97.10;98849.00;5092572;28;20267;-52
2022/06/04 09:05:21;;;;;;;21.80;19.50;;;;;;;19.68;96.85;98853.69;5091298;28;20211;-52
2022/06/04 09:07:52;;;;;;;24.10;19.40;;;;;;;19.85;95.03;98846.97;5092384;28;20211;-53
2022/06/04 09:10:24;;;;;;;20.07;17.97;;;;;;;19.85;93.77;98856.72;5092471;28;20211;-52
2022/06/04 09:12:55;;;;;;;21.60;19.30;;;;;;;19.81;93.80;98859.00;5092510;28;20245;-53
2022/06/04 09:15:29;;;;;;;21.33;18.23;;;;;;;19.96;93.63;98865.94;5092481;28;20198;-53
2022/06/04 09:18:01;;;;;;;25.30;21.90;;;;;;;20.00;93.15;98867.16;5092206;28;20202;-54
2022/06/04 09:20:33;;;;;;;22.23;19.27;;;;;;;20.04;92.71;98871.81;5093399;28;20188;-53
2022/06/04 09:23:22;;;;;;;20.27;17.97;;;;;;;20.11;91.91;98874.47;5097104;28;20192;-52
2022/06/04 09:25:59;;;;;;;23.00;20.40;;;;;;;20.09;90.42;98873.88;5096367;28;20193;-54
2022/06/04 09:28:36;;;;;;;25.60;21.53;;;;;;;20.09;90.45;98873.88;5096016;28;20208;-52
2022/06/04 09:31:14;;;;;;;20.67;18.47;;;;;;;20.14;90.46;98879.31;5095862;28;20269;-52
2022/06/04 09:34:09;;;;;;;20.60;18.13;;;;;;;20.35;90.45;98882.75;5096758;28;20264;-52
2022/06/04 09:36:42;;;;;;;21.00;17.70;;;;;;;20.55;90.58;98871.28;5095860;28;20194;-52
2022/06/04 09:39:20;;;;;;;21.27;18.97;;;;;;;20.60;86.83;98868.81;5094116;28;20213;-52
2022/06/04 09:41:52;;;;;;;17.20;15.30;;;;;;;20.85;88.44;98876.88;5095654;28;20188;-52
2022/06/04 09:44:20;;;;;;;20.87;15.20;;;;;;;20.98;84.60;98876.00;5095910;28;20185;-54
2022/06/04 09:46:51;;;;;;;18.77;16.80;;;;;;;21.08;85.07;98886.97;5095754;28;20194;-52
2022/06/04 09:49:32;;;;;;;17.47;14.77;;;;;;;21.04;83.96;98885.78;5095390;28;20639;-52
2022/06/04 09:52:00;;;;;;;15.43;13.83;;;;;;;21.02;86.07;98882.50;5095399;28;20181;-54
2022/06/04 09:54:29;;;;;;;16.17;13.70;;;;;;;21.15;84.53;98883.47;5095875;28;20204;-54
2022/06/04 09:57:01;;;;;;;17.63;15.93;;;;;;;21.23;84.50;98883.19;5095654;28;20704;-53
2022/06/04 09:59:32;;;;;;;17.43;13.83;;;;;;;21.48;84.28;98890.38;5095437;28;20222;-52
2022/06/04 10:02:02;;;;;;;19.30;16.30;;;;;;;21.37;85.07;98903.31;5095683;28;20232;-52
2022/06/04 10:04:39;;;;;;;16.70;14.93;;;;;;;21.62;84.27;98891.94;5095352;28;20186;-54
2022/06/04 10:07:09;;;;;;;17.20;15.50;;;;;;;21.59;83.75;98894.19;5095128;28;20185;-52
2022/06/04 10:09:57;;;;;;;16.63;14.20;;;;;;;21.66;83.22;98892.31;5095439;28;20212;-52
2022/06/04 10:15:36;;;;;;;18.27;14.37;;;;;;;21.71;79.65;98883.69;5013081;28;20245;-54
2022/06/04 10:18:14;;;;;;;17.87;14.60;;;;;;;21.68;79.87;98883.09;5012638;28;20223;-54
2022/06/04 10:20:53;;;;;;;15.63;13.60;;;;;;;21.52;80.62;98878.28;5059454;28;20204;-54
2022/06/04 10:23:21;;;;;;;13.73;12.33;;;;;;;21.66;81.71;98882.50;5095156;28;20194;-52
2022/06/04 10:26:33;;;;;;;14.20;12.80;;;;;;;21.87;82.49;98885.81;5095594;28;20554;-52
2022/06/04 10:29:16;;;;;;;17.13;12.93;;;;;;;22.02;81.79;98895.28;5093230;28;20226;-52
2022/06/04 10:31:55;;;;;;;19.63;12.77;;;;;;;22.27;80.49;98896.03;5094109;28;20217;-55
2022/06/04 10:34:31;;;;;;;15.20;13.47;;;;;;;22.35;76.98;98899.44;5094871;28;20245;-55
2022/06/04 10:37:18;;;;;;;14.37;12.90;;;;;;;22.34;77.41;98906.59;5094769;28;20245;-54
2022/06/04 10:39:55;;;;;;;19.03;15.10;;;;;;;22.37;77.53;98902.69;5094898;28;20192;-53
2022/06/04 10:42:36;;;;;;;14.47;12.97;;;;;;;22.46;78.76;98905.91;5094972;28;20181;-53
2022/06/04 10:45:15;;;;;;;13.07;11.70;;;;;;;22.66;75.50;98908.31;5094625;28;20658;-52
2022/06/04 10:47:49;;;;;;;13.10;11.67;;;;;;;22.78;76.02;98909.19;5094566;28;20214;-52
2022/06/04 10:53:49;;;;;;;14.30;12.73;;;;;;;23.00;73.45;98908.72;5094517;28;20196;-53
2022/06/04 10:56:20;;;;;;;13.53;11.87;;;;;;;22.99;74.84;98907.91;5093222;28;20201;-54
2022/06/04 10:58:56;;;;;;;16.20;13.13;;;;;;;23.08;74.89;98907.59;5093966;28;20202;-52
2022/06/04 11:01:31;;;;;;;14.00;12.70;;;;;;;23.31;73.30;98901.56;5094564;28;20680;-52
2022/06/04 11:04:08;;;;;;;14.00;12.57;;;;;;;23.46;73.31;98906.47;5094918;28;20274;-55
2022/06/04 11:06:41;;;;;;;13.43;12.00;;;;;;;23.71;71.62;98898.25;5095511;28;20192;-55
2022/06/04 11:09:16;;;;;;;13.97;12.23;;;;;;;24.00;69.06;98903.75;5093296;28;20212;-54
2022/06/04 11:11:51;;;;;;;14.27;12.87;;;;;;;24.16;67.94;98906.78;5094474;28;20712;-52
2022/06/04 11:14:28;;;;;;;13.20;11.87;;;;;;;24.28;69.70;98902.25;5094323;28;20195;-52
2022/06/04 11:17:00;;;;;;;13.90;12.40;;;;;;;24.61;67.02;98903.44;5094223;28;20184;-55
2022/06/04 11:19:32;;;;;;;13.47;12.07;;;;;;;25.16;65.07;98903.97;5093962;28;20204;-53
2022/06/04 11:22:07;;;;;;;13.07;11.60;;;;;;;25.50;62.79;98896.00;5093732;28;20186;-52
2022/06/04 11:24:42;;;;;;;12.53;11.23;;;;;;;25.69;63.18;98906.44;5094104;28;20216;-53
2022/06/04 11:27:15;;;;;;;12.93;11.13;;;;;;;25.78;62.71;98899.63;5092483;28;20210;-53
2022/06/04 11:30:01;;;;;;;12.27;11.13;;;;;;;25.93;60.18;98892.91;5093890;28;20601;-52
2022/06/04 11:32:37;;;;;;;11.77;9.13;;;;;;;26.27;60.43;98898.22;5093989;28;20190;-51
2022/06/04 11:35:15;;;;;;;10.07;9.17;;;;;;;25.75;59.92;98886.75;5093594;28;20190;-50
2022/06/04 11:38:07;;;;;;;8.70;7.80;;;;;;;25.37;60.64;98884.78;5093530;28;20229;-50
2022/06/04 11:40:41;;;;;;;10.10;8.00;;;;;;;25.16;59.90;98885.25;5093495;28;20543;-50
2022/06/04 11:43:20;;;;;;;8.63;7.70;;;;;;;25.03;60.59;98893.56;5093001;28;20599;-52
2022/06/04 11:46:04;;;;;;;9.07;7.20;;;;;;;24.56;60.41;98876.63;5092934;28;20194;-50
2022/06/04 11:48:57;;;;;;;9.27;6.43;;;;;;;24.43;60.47;98877.72;5093320;28;20274;-53
2022/06/04 11:51:44;;;;;;;8.07;6.73;;;;;;;24.05;62.83;98875.59;5093568;28;20216;-52
2022/06/04 11:54:27;;;;;;;11.30;7.07;;;;;;;23.99;66.92;98878.13;5092371;28;20215;-52
2022/06/04 11:57:05;;;;;;;7.63;6.73;;;;;;;24.12;66.13;98868.28;5093214;28;20188;-52
2022/06/04 11:59:47;;;;;;;10.63;6.67;;;;;;;24.08;65.88;98859.91;5093269;28;20645;-52
2022/06/04 12:02:24;;;;;;;7.83;6.60;;;;;;;24.15;62.11;98857.16;5093717;28;20488;-55
2022/06/04 12:05:04;;;;;;;9.00;7.53;;;;;;;24.03;63.50;98855.31;5093657;28;20176;-55
2022/06/04 12:07:38;;;;;;;9.23;7.73;;;;;;;23.78;66.40;98854.69;5092756;28;20207;-53
2022/06/04 12:10:20;;;;;;;9.83;7.63;;;;;;;23.94;63.63;98861.16;5092255;28;20192;-53
2022/06/04 12:12:58;;;;;;;8.33;7.00;;;;;;;23.81;64.58;98846.25;5093504;28;20186;-53